KISQ/ISQ METAR and TAF weather

Enter ICAO airport designator
Station Type Date Time Source
KISQ METAR 2022/11/30 16:35 UTC NOAA

KISQ 301635Z AUTO 25008G22KT 230V290 10SM BKN028 BKN034 OVC060 M01/M08 A2956 RMK AO2 T10151076


Station Type Date Time Source
KISQ Decoded METAR 2022/11/30 16:35 UTC NOAA

Manistique, Schoolcraft County Airport, MI, United States (KISQ) 45-58-29N 086-10-19W
Nov 30, 2022 - 11:35 AM EST / 2022.11.30 1635 UTC
Wind: from the WSW (250 degrees) at 9 MPH (8 KT) gusting to 25 MPH (22 KT) (direction variable):0
Visibility: 10 mile(s):0
Sky conditions: overcast
Temperature: 29.3 F (-1.5 C)
Windchill: 21 F (-6 C):1
Dew Point: 18.3 F (-7.6 C)
Relative Humidity: 63%
Pressure (altimeter): 29.56 in. Hg (1001 hPa)
ob: KISQ 301635Z AUTO 25008G22KT 230V290 10SM BKN028 BKN034 OVC060 M01/M08 A2956 RMK AO2 T10151076
cycle: 16

Station Type Date Time Source
KISQ TAF UTC NOAA

Error!

Example: see airport list